createdAt,value
2023-02-13T00:01:41.177Z,37.30
2023-02-13T00:03:41.525Z,39.00
2023-02-13T00:05:41.982Z,33.50
2023-02-13T00:07:42.475Z,35.10
2023-02-13T00:09:43.134Z,40.10
2023-02-13T00:11:43.472Z,36.80
2023-02-13T00:13:43.745Z,37.50
2023-02-13T00:15:44.137Z,36.30
2023-02-13T00:17:44.594Z,37.50
2023-02-13T00:19:44.894Z,35.70
2023-02-13T00:21:45.239Z,37.60
2023-02-13T00:23:45.545Z,37.10
2023-02-13T00:25:45.851Z,35.90
2023-02-13T00:27:46.169Z,46.20
2023-02-13T00:29:46.442Z,43.10
2023-02-13T00:31:46.858Z,40.40
2023-02-13T00:33:47.227Z,37.10
2023-02-13T00:35:47.536Z,41.70
2023-02-13T00:37:47.924Z,42.90
2023-02-13T00:39:48.264Z,40.70
2023-02-13T00:41:48.584Z,41.70
2023-02-13T00:43:48.923Z,41.00
2023-02-13T00:45:49.260Z,38.90
2023-02-13T00:47:49.558Z,43.60
2023-02-13T00:49:49.880Z,39.10
2023-02-13T00:51:50.264Z,37.70
2023-02-13T00:53:50.584Z,41.10
2023-02-13T00:55:50.861Z,37.20
2023-02-13T00:57:51.149Z,35.80
2023-02-13T00:59:51.894Z,44.40
2023-02-13T01:01:52.301Z,40.70
2023-02-13T01:03:52.657Z,36.30
2023-02-13T01:05:53.130Z,34.40
2023-02-13T01:07:53.487Z,38.00
2023-02-13T01:09:53.769Z,39.10
2023-02-13T01:11:54.107Z,36.00
2023-02-13T01:13:54.373Z,36.60
2023-02-13T01:15:54.717Z,36.20
2023-02-13T01:17:55.082Z,40.10
2023-02-13T01:19:55.388Z,40.40
2023-02-13T01:21:55.751Z,37.20
2023-02-13T01:23:56.185Z,39.00
2023-02-13T01:25:56.521Z,38.30
2023-02-13T01:27:56.953Z,36.70
2023-02-13T01:29:57.272Z,43.90
2023-02-13T01:31:57.590Z,36.20
2023-02-13T01:33:57.987Z,37.40
2023-02-13T01:35:58.528Z,35.00
2023-02-13T01:37:58.819Z,39.90
2023-02-13T01:39:59.078Z,38.90
2023-02-13T01:41:59.459Z,34.70
2023-02-13T01:43:59.797Z,33.00
2023-02-13T01:46:00.119Z,38.20
2023-02-13T01:48:01.333Z,33.50
2023-02-13T01:50:01.898Z,34.00
2023-02-13T01:52:02.182Z,34.00
2023-02-13T01:54:02.577Z,38.30
2023-02-13T01:56:07.675Z,34.50
2023-02-13T01:58:08.004Z,38.70
2023-02-13T02:00:08.300Z,35.80
2023-02-13T02:02:08.643Z,36.50
2023-02-13T02:04:09.002Z,35.60
2023-02-13T02:06:09.261Z,39.70
2023-02-13T02:08:09.588Z,34.50
2023-02-13T02:10:09.914Z,36.10
2023-02-13T02:12:10.243Z,35.50
2023-02-13T02:14:11.297Z,33.00
2023-02-13T02:16:11.643Z,31.80
2023-02-13T02:18:12.049Z,34.60
2023-02-13T02:20:12.300Z,37.00
2023-02-13T02:22:12.586Z,30.10
2023-02-13T02:24:12.895Z,31.50
2023-02-13T02:26:13.200Z,33.70
2023-02-13T02:28:13.504Z,33.30
2023-02-13T02:30:13.790Z,34.40
2023-02-13T02:32:14.122Z,33.50
2023-02-13T02:34:14.513Z,37.70
2023-02-13T02:36:14.865Z,40.20
2023-02-13T02:38:15.232Z,33.40
2023-02-13T02:40:16.304Z,35.50
2023-02-13T02:42:16.615Z,34.10
2023-02-13T02:44:17.017Z,33.10
2023-02-13T02:46:17.348Z,34.60
2023-02-13T02:48:17.619Z,41.30
2023-02-13T02:50:17.888Z,34.70
2023-02-13T02:52:18.280Z,37.70
2023-02-13T02:54:18.554Z,32.40
2023-02-13T02:56:18.881Z,32.60
2023-02-13T02:58:19.352Z,35.30
2023-02-13T03:00:19.623Z,34.50
2023-02-13T03:02:19.879Z,36.50
2023-02-13T03:04:20.295Z,38.90
2023-02-13T03:06:20.601Z,42.80
2023-02-13T03:08:21.124Z,42.10
2023-02-13T03:10:21.634Z,42.60
2023-02-13T03:12:22.149Z,39.10
2023-02-13T03:14:22.687Z,38.50
2023-02-13T03:16:23.334Z,34.90
2023-02-13T03:18:23.816Z,44.20
2023-02-13T03:20:24.382Z,38.00
2023-02-13T03:22:24.698Z,41.90
2023-02-13T03:24:24.959Z,50.30
2023-02-13T03:26:25.486Z,49.30
2023-02-13T03:28:25.846Z,52.00
2023-02-13T03:30:26.238Z,53.80
2023-02-13T03:32:27.297Z,51.10
2023-02-13T03:34:27.577Z,46.80
2023-02-13T03:36:27.940Z,49.50
2023-02-13T03:38:28.283Z,47.70
2023-02-13T03:40:28.535Z,54.90
2023-02-13T03:42:29.199Z,55.00
2023-02-13T03:44:30.305Z,53.90
2023-02-13T03:46:30.585Z,53.20
2023-02-13T03:48:30.918Z,46.90
2023-02-13T03:50:31.275Z,48.70
2023-02-13T03:52:31.811Z,48.00
2023-02-13T03:54:32.076Z,53.30
2023-02-13T03:56:32.577Z,49.80
2023-02-13T03:58:32.862Z,56.30
2023-02-13T04:00:33.799Z,48.40
2023-02-13T04:02:34.107Z,44.30
2023-02-13T04:04:34.693Z,48.10
2023-02-13T04:06:35.263Z,45.20
2023-02-13T04:08:36.307Z,43.00
2023-02-13T04:10:36.573Z,47.00
2023-02-13T04:12:37.029Z,45.30
2023-02-13T04:14:37.812Z,37.30
2023-02-13T04:16:38.154Z,41.50
2023-02-13T04:18:43.244Z,50.70
2023-02-13T04:20:43.722Z,47.60
2023-02-13T04:22:44.030Z,45.90
2023-02-13T04:24:44.378Z,40.40
2023-02-13T04:26:44.844Z,40.80
2023-02-13T04:28:45.116Z,36.60
2023-02-13T04:30:45.554Z,34.40
2023-02-13T04:32:45.836Z,38.10
2023-02-13T04:34:46.425Z,38.30
2023-02-13T04:36:46.759Z,43.60
2023-02-13T04:38:47.014Z,44.70
2023-02-13T04:40:47.426Z,41.70
2023-02-13T04:42:47.686Z,44.10
2023-02-13T04:44:48.051Z,56.30
2023-02-13T04:46:48.326Z,62.10
2023-02-13T04:48:48.625Z,59.50
2023-02-13T04:50:49.038Z,53.00
2023-02-13T04:52:49.316Z,59.30
2023-02-13T04:54:49.632Z,51.50
2023-02-13T04:56:49.993Z,46.90
2023-02-13T04:58:50.266Z,54.40
2023-02-13T05:00:50.592Z,55.80
2023-02-13T05:02:51.841Z,59.50
2023-02-13T05:04:52.243Z,62.10
2023-02-13T05:06:52.555Z,58.50
2023-02-13T05:08:53.179Z,54.80
2023-02-13T05:10:53.537Z,58.20
2023-02-13T05:12:53.839Z,54.60
2023-02-13T05:14:54.165Z,61.20
2023-02-13T05:16:54.544Z,62.40
2023-02-13T05:18:54.970Z,64.30
2023-02-13T05:20:57.362Z,85.50
2023-02-13T05:22:59.029Z,78.40
2023-02-13T05:24:59.781Z,78.00
2023-02-13T05:27:00.716Z,72.00
2023-02-13T05:29:01.061Z,65.50
2023-02-13T05:31:02.116Z,72.20
2023-02-13T05:33:02.803Z,79.20
2023-02-13T05:35:04.499Z,67.60
2023-02-13T05:37:04.930Z,68.50
2023-02-13T05:39:05.391Z,66.40
2023-02-13T05:41:05.670Z,66.90
2023-02-13T05:43:06.881Z,61.20
2023-02-13T05:45:12.096Z,70.10
2023-02-13T05:47:12.402Z,78.20
2023-02-13T05:49:12.938Z,70.10
2023-02-13T05:51:13.228Z,67.20
2023-02-13T05:53:13.521Z,76.40
2023-02-13T05:55:14.033Z,62.30
2023-02-13T05:57:19.137Z,68.40
2023-02-13T05:59:19.401Z,63.60
2023-02-13T06:01:19.855Z,78.40
2023-02-13T06:04:03.974Z,80.30
2023-02-13T06:06:04.842Z,87.70
2023-02-13T06:08:05.326Z,75.50
2023-02-13T06:10:06.810Z,74.30
2023-02-13T06:12:07.305Z,78.90
2023-02-13T06:14:51.031Z,77.80
2023-02-13T06:16:51.823Z,79.70
2023-02-13T06:19:41.241Z,78.90
2023-02-13T06:21:41.912Z,85.40
2023-02-13T06:23:42.226Z,81.10
2023-02-13T06:25:42.611Z,80.80
2023-02-13T06:27:42.938Z,77.70
2023-02-13T06:29:48.067Z,63.30
2023-02-13T06:31:48.418Z,77.90
2023-02-13T06:33:49.084Z,78.40
2023-02-13T06:35:49.436Z,73.90
2023-02-13T06:37:49.717Z,73.20
2023-02-13T06:40:37.089Z,62.90
2023-02-13T06:42:38.090Z,72.80
2023-02-13T06:45:41.872Z,58.50
2023-02-13T06:48:28.309Z,54.90
2023-02-13T06:50:28.638Z,59.80
2023-02-13T06:52:29.163Z,60.50
2023-02-13T07:01:42.184Z,71.30
2023-02-13T07:04:51.195Z,75.50
2023-02-13T07:06:51.649Z,77.50
2023-02-13T07:08:52.137Z,75.40
2023-02-13T07:10:52.432Z,78.80
2023-02-13T07:13:04.919Z,72.50
2023-02-13T07:15:41.484Z,69.90
2023-02-13T07:17:42.148Z,69.90
2023-02-13T07:19:43.334Z,66.80
2023-02-13T07:22:26.568Z,60.50
2023-02-13T07:25:10.310Z,55.60
2023-02-13T07:27:10.884Z,53.00
2023-02-13T07:29:12.428Z,67.80
2023-02-13T07:31:13.169Z,63.80
2023-02-13T07:33:13.817Z,66.90
2023-02-13T07:35:56.673Z,66.10
2023-02-13T07:37:58.485Z,69.90
2023-02-13T07:43:52.092Z,70.10
2023-02-13T07:48:25.283Z,72.00
2023-02-13T07:51:09.757Z,61.00
2023-02-13T07:53:10.353Z,66.60
2023-02-13T07:58:08.866Z,72.20
2023-02-13T08:01:23.638Z,83.50
2023-02-13T08:04:31.377Z,70.80
2023-02-13T08:06:31.900Z,70.80
2023-02-13T08:08:32.494Z,72.20
2023-02-13T08:10:32.887Z,74.50
2023-02-13T08:12:33.507Z,68.90
2023-02-13T08:14:33.826Z,77.30
2023-02-13T08:16:34.318Z,63.40
2023-02-13T08:18:39.404Z,68.90
2023-02-13T08:20:39.795Z,66.20
2023-02-13T08:22:40.254Z,72.70
2023-02-13T08:24:40.754Z,71.90
2023-02-13T08:26:41.480Z,71.20
2023-02-13T08:28:42.132Z,65.60
2023-02-13T08:30:43.216Z,66.60
2023-02-13T08:33:28.785Z,58.50
2023-02-13T08:36:16.449Z,61.00
2023-02-13T08:38:16.889Z,58.90
2023-02-13T08:40:17.301Z,58.00
2023-02-13T08:42:17.781Z,54.70
2023-02-13T08:44:18.159Z,50.70
2023-02-13T08:46:18.642Z,47.20
2023-02-13T08:48:24.336Z,46.80
2023-02-13T08:50:24.727Z,47.70
2023-02-13T08:52:25.060Z,45.30
2023-02-13T08:54:25.387Z,47.10
2023-02-13T08:57:18.119Z,55.50
2023-02-13T08:59:18.674Z,53.90
2023-02-13T09:01:19.318Z,54.00
2023-02-13T09:03:19.900Z,58.20
2023-02-13T09:05:20.365Z,53.70
2023-02-13T09:07:21.067Z,55.70
2023-02-13T09:09:21.601Z,57.70
2023-02-13T09:11:21.855Z,62.10
2023-02-13T09:13:22.285Z,51.70
2023-02-13T09:15:22.592Z,51.80
2023-02-13T09:17:22.931Z,49.80
2023-02-13T09:19:23.214Z,46.60
2023-02-13T09:21:23.519Z,41.80
2023-02-13T09:23:23.812Z,45.60
2023-02-13T09:25:24.221Z,47.10
2023-02-13T09:27:24.506Z,43.80
2023-02-13T09:29:24.960Z,42.60
2023-02-13T09:31:27.223Z,38.20
2023-02-13T09:33:29.461Z,39.70
2023-02-13T09:35:29.801Z,46.10
2023-02-13T09:37:35.163Z,38.70
2023-02-13T09:40:32.875Z,35.50
2023-02-13T09:42:33.603Z,36.60
2023-02-13T09:45:21.087Z,39.50
2023-02-13T09:47:21.619Z,38.60
2023-02-13T09:49:22.123Z,37.50
2023-02-13T09:51:22.677Z,38.70
2023-02-13T09:53:23.215Z,38.00
2023-02-13T09:55:23.690Z,39.40
2023-02-13T09:57:24.204Z,37.80
2023-02-13T09:59:24.694Z,36.00
2023-02-13T10:01:25.194Z,36.60
2023-02-13T10:03:25.615Z,38.70
2023-02-13T10:05:26.012Z,36.40
2023-02-13T10:07:26.479Z,42.10
2023-02-13T10:09:26.928Z,37.10
2023-02-13T10:11:27.588Z,37.90
2023-02-13T10:13:27.901Z,38.80
2023-02-13T10:15:28.331Z,39.30
2023-02-13T10:17:28.764Z,37.00
2023-02-13T10:19:29.038Z,37.20
2023-02-13T10:21:29.484Z,33.90
2023-02-13T10:23:29.995Z,37.30
2023-02-13T10:25:30.658Z,40.60
2023-02-13T10:27:31.042Z,38.70
2023-02-13T10:29:31.542Z,37.00
2023-02-13T10:31:35.044Z,37.60
2023-02-13T10:33:35.711Z,40.80
2023-02-13T10:35:36.264Z,38.70
2023-02-13T10:37:36.673Z,41.30
2023-02-13T10:39:37.145Z,35.60
2023-02-13T10:41:37.759Z,35.50
2023-02-13T10:43:38.219Z,41.30
2023-02-13T10:45:38.684Z,36.60
2023-02-13T10:47:39.058Z,37.10
2023-02-13T10:49:39.591Z,36.90
2023-02-13T10:51:44.817Z,34.40
2023-02-13T10:53:45.227Z,36.10
2023-02-13T10:55:45.703Z,35.10
2023-02-13T10:57:46.369Z,34.90
2023-02-13T10:59:47.091Z,35.70
2023-02-13T11:01:47.694Z,33.00
2023-02-13T11:03:48.657Z,35.80
2023-02-13T11:05:49.314Z,34.10
2023-02-13T11:09:14.199Z,40.30
2023-02-13T11:13:37.745Z,37.40
2023-02-13T11:17:25.934Z,33.80
2023-02-13T11:19:28.075Z,38.50
2023-02-13T11:27:42.389Z,32.70
2023-02-13T11:29:44.748Z,31.90
2023-02-13T11:31:46.309Z,31.40
2023-02-13T11:35:42.997Z,28.60
2023-02-13T11:39:36.400Z,26.60
2023-02-13T11:44:23.570Z,27.70
2023-02-13T11:46:24.179Z,26.80
2023-02-13T11:48:24.722Z,27.50
2023-02-13T11:52:04.928Z,27.70
2023-02-13T11:54:05.301Z,25.60
2023-02-13T11:56:06.498Z,22.60
2023-02-13T11:58:09.737Z,23.90
2023-02-13T12:00:10.252Z,25.70
2023-02-13T12:03:05.336Z,23.20
2023-02-13T12:06:07.522Z,24.00
2023-02-13T12:09:04.883Z,23.60
2023-02-13T12:11:05.419Z,22.60
2023-02-13T12:14:43.824Z,23.40
2023-02-13T12:16:44.597Z,23.10
2023-02-13T12:18:45.150Z,21.50
2023-02-13T12:20:45.811Z,22.90
2023-02-13T12:22:46.138Z,27.70
2023-02-13T12:24:46.420Z,25.20
2023-02-13T12:26:46.832Z,24.40
2023-02-13T12:28:47.221Z,23.90
2023-02-13T12:30:47.654Z,22.30
2023-02-13T12:32:48.087Z,22.70
2023-02-13T12:34:48.417Z,23.60
2023-02-13T12:36:49.056Z,23.00
2023-02-13T12:38:49.490Z,24.60
2023-02-13T12:40:49.855Z,25.20
2023-02-13T12:42:50.243Z,26.00
2023-02-13T12:44:50.621Z,22.00
2023-02-13T12:46:51.047Z,23.40
2023-02-13T12:48:51.625Z,24.40
2023-02-13T12:50:51.958Z,23.60
2023-02-13T12:52:52.545Z,22.30
2023-02-13T12:56:03.415Z,23.00
2023-02-13T12:58:04.032Z,24.00
2023-02-13T13:00:04.630Z,22.40
2023-02-13T13:02:04.976Z,24.10
2023-02-13T13:04:05.431Z,20.70
2023-02-13T13:06:12.617Z,24.40
2023-02-13T13:08:11.067Z,24.80
2023-02-13T13:10:11.558Z,23.20
2023-02-13T13:12:54.935Z,25.10
2023-02-13T13:14:55.235Z,24.30
2023-02-13T13:16:55.693Z,23.30
2023-02-13T13:18:57.136Z,25.30
2023-02-13T13:20:58.693Z,22.00
2023-02-13T13:22:59.185Z,20.40
2023-02-13T13:24:59.520Z,22.20
2023-02-13T13:26:59.857Z,21.40
2023-02-13T13:29:00.172Z,23.60
2023-02-13T13:31:01.105Z,22.80
2023-02-13T13:33:01.558Z,22.80
2023-02-13T13:35:01.911Z,21.70
2023-02-13T13:37:02.265Z,21.90
2023-02-13T13:39:02.740Z,23.60
2023-02-13T13:41:03.183Z,22.90
2023-02-13T13:43:03.732Z,23.30
2023-02-13T13:45:04.407Z,20.70
2023-02-13T13:47:04.725Z,23.70
2023-02-13T13:49:05.055Z,24.60
2023-02-13T13:51:05.456Z,21.30
2023-02-13T13:53:05.820Z,25.10
2023-02-13T13:55:06.121Z,20.90
2023-02-13T13:57:06.560Z,22.30
2023-02-13T13:59:06.921Z,22.20
2023-02-13T14:01:07.363Z,20.60
2023-02-13T14:03:08.800Z,25.20
2023-02-13T14:05:10.925Z,22.20
2023-02-13T14:07:11.863Z,24.40
2023-02-13T14:09:12.354Z,20.00
2023-02-13T14:11:12.751Z,21.50
2023-02-13T14:13:13.035Z,23.80
2023-02-13T14:15:13.452Z,24.40
2023-02-13T14:17:13.739Z,21.10
2023-02-13T14:19:14.036Z,28.40
2023-02-13T14:21:14.367Z,23.60
2023-02-13T14:23:14.785Z,19.90
2023-02-13T14:25:15.126Z,23.10
2023-02-13T14:27:15.392Z,21.50
2023-02-13T14:29:15.686Z,20.80
2023-02-13T14:31:16.135Z,21.60
2023-02-13T14:33:16.770Z,21.00
2023-02-13T14:35:17.100Z,21.20
2023-02-13T14:37:17.566Z,19.10
2023-02-13T14:39:18.072Z,23.50
2023-02-13T14:41:18.357Z,23.50
2023-02-13T14:43:18.688Z,21.40
2023-02-13T14:45:19.922Z,22.40
2023-02-13T14:47:20.253Z,20.60
2023-02-13T14:50:02.914Z,23.60
2023-02-13T14:52:45.616Z,18.10
2023-02-13T14:54:45.980Z,22.40
2023-02-13T14:56:46.352Z,20.60
2023-02-13T14:58:46.787Z,18.90
2023-02-13T15:01:34.693Z,20.00
2023-02-13T15:04:33.692Z,22.20
2023-02-13T15:06:34.286Z,21.10
2023-02-13T15:08:34.887Z,19.70
2023-02-13T15:10:35.945Z,18.80
2023-02-13T15:12:36.240Z,18.80
2023-02-13T15:14:36.516Z,17.30
2023-02-13T15:16:37.142Z,17.00
2023-02-13T15:18:37.516Z,15.60
2023-02-13T15:20:37.858Z,16.30
2023-02-13T15:22:39.546Z,18.80
2023-02-13T15:24:39.941Z,17.30
2023-02-13T15:26:40.964Z,16.70
2023-02-13T15:29:31.126Z,15.50
2023-02-13T15:31:30.824Z,19.00
2023-02-13T15:33:31.335Z,18.30
2023-02-13T15:35:31.829Z,19.10
2023-02-13T15:37:32.249Z,18.20
2023-02-13T15:39:32.526Z,16.50
2023-02-13T15:41:32.863Z,18.50
2023-02-13T15:43:33.211Z,16.50
2023-02-13T15:45:33.706Z,19.60
2023-02-13T15:47:34.079Z,17.90
2023-02-13T15:49:34.414Z,17.80
2023-02-13T15:51:34.925Z,18.30
2023-02-13T15:53:35.443Z,17.10
2023-02-13T15:55:35.786Z,16.80
2023-02-13T15:57:36.378Z,16.60
2023-02-13T15:59:36.949Z,18.10
2023-02-13T16:01:37.676Z,17.40
2023-02-13T16:03:38.404Z,16.60
2023-02-13T16:05:40.813Z,18.10
2023-02-13T16:07:41.511Z,19.70
2023-02-13T16:09:42.109Z,16.40
2023-02-13T16:11:42.497Z,20.00
2023-02-13T16:13:43.120Z,16.60
2023-02-13T16:15:43.644Z,16.20
2023-02-13T16:17:44.069Z,17.90
2023-02-13T16:19:44.349Z,17.30
2023-02-13T16:21:44.916Z,18.90
2023-02-13T16:23:45.860Z,17.70
2023-02-13T16:25:46.321Z,18.20
2023-02-13T16:33:46.672Z,19.30
2023-02-13T16:48:31.793Z,17.40
2023-02-13T16:50:33.560Z,17.10
2023-02-13T16:52:35.086Z,17.70
2023-02-13T16:55:25.428Z,17.20
2023-02-13T16:57:25.828Z,18.00
2023-02-13T16:59:26.162Z,21.30
2023-02-13T17:01:26.633Z,23.80
2023-02-13T17:03:27.065Z,19.70
2023-02-13T17:05:27.406Z,20.60
2023-02-13T17:07:27.793Z,22.00
2023-02-13T17:09:28.152Z,27.80
2023-02-13T17:11:28.435Z,27.30
2023-02-13T17:13:28.816Z,27.20
2023-02-13T17:15:29.247Z,23.20
2023-02-13T17:17:29.560Z,23.90
2023-02-13T17:19:29.931Z,22.50
2023-02-13T17:21:30.276Z,23.20
2023-02-13T17:23:30.613Z,23.50
2023-02-13T17:25:31.369Z,25.10
2023-02-13T17:27:31.760Z,21.80
2023-02-13T17:29:32.087Z,22.20
2023-02-13T17:31:32.815Z,24.60
2023-02-13T17:34:16.742Z,28.10
2023-02-13T17:36:17.293Z,28.90
2023-02-13T17:38:18.014Z,27.10
2023-02-13T17:40:18.396Z,26.30
2023-02-13T17:42:18.809Z,30.00
2023-02-13T17:44:19.361Z,28.00
2023-02-13T17:46:20.480Z,28.50
2023-02-13T17:48:20.824Z,29.30
2023-02-13T17:50:21.152Z,27.30
2023-02-13T17:52:21.544Z,25.90
2023-02-13T17:54:21.848Z,28.70
2023-02-13T18:02:57.144Z,30.10
2023-02-13T18:48:08.911Z,35.60
2023-02-13T18:50:09.768Z,31.40
2023-02-13T18:52:18.067Z,33.20
2023-02-13T18:54:18.507Z,30.30
2023-02-13T18:56:18.848Z,34.10
2023-02-13T18:58:20.810Z,31.60
2023-02-13T19:00:21.700Z,34.70
2023-02-13T19:02:23.879Z,33.80
2023-02-13T19:08:04.841Z,31.00
2023-02-13T19:10:05.509Z,31.90
2023-02-13T19:12:06.253Z,29.60
2023-02-13T19:14:07.187Z,32.80
2023-02-13T19:40:13.553Z,35.10
2023-02-13T19:46:21.327Z,37.80
2023-02-13T19:48:24.356Z,33.40
2023-02-13T19:50:25.067Z,37.20
2023-02-13T19:52:25.482Z,34.40
2023-02-13T19:54:25.728Z,33.80
2023-02-13T20:04:47.596Z,35.70
2023-02-13T20:09:07.118Z,38.20
2023-02-13T20:11:59.133Z,42.80
2023-02-13T20:13:59.875Z,40.60
2023-02-13T20:16:01.968Z,39.60
2023-02-13T20:19:20.070Z,36.80
2023-02-13T20:25:06.590Z,42.30
2023-02-13T20:28:56.056Z,39.30
2023-02-13T20:35:36.495Z,39.00
2023-02-13T20:41:46.434Z,46.50
2023-02-13T20:43:47.557Z,40.30
2023-02-13T20:45:48.200Z,41.70
2023-02-13T20:47:48.762Z,39.10
2023-02-13T20:49:49.078Z,37.30
2023-02-13T20:51:49.720Z,40.30
2023-02-13T20:53:50.331Z,40.90
2023-02-13T20:55:50.678Z,37.80
2023-02-13T20:57:50.987Z,36.40
2023-02-13T20:59:51.323Z,39.50
2023-02-13T21:01:51.673Z,36.60
2023-02-13T21:03:52.021Z,34.70
2023-02-13T21:05:52.364Z,34.80
2023-02-13T21:07:52.686Z,38.80
2023-02-13T21:09:52.968Z,40.30
2023-02-13T21:11:53.289Z,39.30
2023-02-13T21:13:53.661Z,35.50
2023-02-13T21:15:56.952Z,43.90
2023-02-13T21:17:57.481Z,41.60
2023-02-13T21:20:41.105Z,38.60
2023-02-13T21:27:02.900Z,43.10
2023-02-13T21:29:04.714Z,39.40
2023-02-13T21:31:05.243Z,41.20
2023-02-13T21:33:06.538Z,41.00
2023-02-13T21:35:07.112Z,39.80
2023-02-13T21:37:07.942Z,38.00
2023-02-13T21:40:48.816Z,39.00
2023-02-13T21:42:49.167Z,37.90
2023-02-13T21:44:49.665Z,40.70
2023-02-13T21:46:50.366Z,39.30
2023-02-13T21:49:57.271Z,44.80
2023-02-13T21:54:32.584Z,48.10
2023-02-13T21:56:32.921Z,44.50
2023-02-13T21:58:33.233Z,53.60
2023-02-13T22:00:33.616Z,46.00
2023-02-13T22:02:34.034Z,43.30
2023-02-13T22:04:34.432Z,48.90
2023-02-13T22:06:34.718Z,59.70
2023-02-13T22:08:35.020Z,62.30
2023-02-13T22:10:35.339Z,63.90
2023-02-13T22:12:35.704Z,68.40
2023-02-13T22:14:36.038Z,66.00
2023-02-13T22:16:36.969Z,63.20
2023-02-13T22:18:37.271Z,62.10
2023-02-13T22:20:37.580Z,57.20
2023-02-13T22:22:37.904Z,59.80
2023-02-13T22:24:38.226Z,67.70
2023-02-13T22:26:38.574Z,54.40
2023-02-13T22:28:38.825Z,56.20
2023-02-13T22:30:39.317Z,52.40
2023-02-13T22:32:39.655Z,52.60
2023-02-13T22:34:39.955Z,55.20
2023-02-13T22:36:40.462Z,54.30
2023-02-13T22:38:40.818Z,52.50
2023-02-13T22:40:41.136Z,55.20
2023-02-13T22:42:41.409Z,49.90
2023-02-13T22:44:47.357Z,54.00
2023-02-13T22:46:47.614Z,51.50
2023-02-13T22:48:47.941Z,49.60
2023-02-13T22:50:48.327Z,47.80
2023-02-13T22:52:48.650Z,44.10
2023-02-13T22:54:48.956Z,52.20
2023-02-13T22:56:49.236Z,50.20
2023-02-13T22:58:49.576Z,45.40
2023-02-13T23:00:49.987Z,46.00
2023-02-13T23:02:50.352Z,44.30
2023-02-13T23:04:50.658Z,43.70
2023-02-13T23:06:50.979Z,40.10
2023-02-13T23:08:51.240Z,41.20
2023-02-13T23:10:51.553Z,40.50
2023-02-13T23:12:51.859Z,41.70
2023-02-13T23:14:52.198Z,35.80
2023-02-13T23:16:52.619Z,42.00
2023-02-13T23:18:52.852Z,41.10
2023-02-13T23:20:53.144Z,42.50
2023-02-13T23:22:53.454Z,42.90
2023-02-13T23:24:53.808Z,42.00
2023-02-13T23:26:54.171Z,39.00
2023-02-13T23:28:54.490Z,37.70
2023-02-13T23:30:54.846Z,34.30
2023-02-13T23:32:55.185Z,34.10
2023-02-13T23:34:55.436Z,34.40
2023-02-13T23:36:55.753Z,32.00
2023-02-13T23:38:56.031Z,36.10
2023-02-13T23:40:56.502Z,35.70
2023-02-13T23:42:56.863Z,36.10
2023-02-13T23:44:57.230Z,33.80
2023-02-13T23:46:57.508Z,36.40
2023-02-13T23:48:57.832Z,35.50
2023-02-13T23:50:58.484Z,36.80
2023-02-13T23:52:58.936Z,36.20
2023-02-13T23:54:59.306Z,36.30
2023-02-13T23:56:59.685Z,37.90
2023-02-13T23:59:00.049Z,35.70
